createdAt,value
2023-04-06T00:01:03.009Z,90.12
2023-04-06T00:03:48.763Z,89.79
2023-04-06T00:06:34.935Z,89.64
2023-04-06T00:09:20.805Z,89.53
2023-04-06T00:12:06.641Z,89.50
2023-04-06T00:14:55.396Z,89.76
2023-04-06T00:17:41.546Z,88.76
2023-04-06T00:20:27.028Z,89.68
2023-04-06T00:23:12.518Z,89.24
2023-04-06T00:25:58.287Z,89.60
2023-04-06T00:28:43.635Z,89.11
2023-04-06T00:31:29.285Z,88.37
2023-04-06T00:34:16.945Z,88.54
2023-04-06T00:37:02.802Z,89.27
2023-04-06T00:39:49.493Z,88.89
2023-04-06T00:42:34.936Z,88.55
2023-04-06T00:45:20.588Z,88.49
2023-04-06T00:48:08.312Z,88.11
2023-04-06T00:50:56.018Z,88.44
2023-04-06T00:53:41.539Z,88.78
2023-04-06T00:56:29.196Z,89.27
2023-04-06T00:59:14.567Z,88.96
2023-04-06T01:02:01.047Z,88.35
2023-04-06T01:04:58.713Z,88.26
2023-04-06T01:07:55.420Z,88.52
2023-04-06T01:10:44.452Z,87.82
2023-04-06T01:13:40.492Z,88.65
2023-04-06T01:16:34.038Z,88.22
2023-04-06T01:19:29.192Z,88.23
2023-04-06T01:22:17.865Z,88.97
2023-04-06T01:25:12.028Z,88.88
2023-04-06T01:28:20.391Z,88.98
2023-04-06T01:31:23.885Z,88.33
2023-04-06T01:34:11.959Z,88.88
2023-04-06T01:36:57.672Z,89.07
2023-04-06T01:39:49.299Z,89.05
2023-04-06T01:42:44.921Z,89.44
2023-04-06T01:45:36.643Z,88.96
2023-04-06T01:48:33.959Z,88.86
2023-04-06T01:51:26.912Z,88.31
2023-04-06T01:54:17.584Z,88.74
2023-04-06T01:57:16.021Z,89.13
2023-04-06T02:00:15.610Z,89.08
2023-04-06T02:03:06.274Z,89.31
2023-04-06T02:05:52.319Z,88.67
2023-04-06T02:08:52.484Z,89.19
2023-04-06T02:11:38.440Z,88.91
2023-04-06T02:14:26.948Z,88.32
2023-04-06T02:17:16.596Z,88.46
2023-04-06T02:20:03.296Z,88.39
2023-04-06T02:22:48.613Z,89.21
2023-04-06T02:25:34.486Z,88.95
2023-04-06T02:28:20.000Z,88.76
2023-04-06T02:31:06.055Z,88.53
2023-04-06T02:33:51.485Z,89.05
2023-04-06T02:36:37.958Z,88.89
2023-04-06T02:39:23.782Z,89.04
2023-04-06T02:42:09.977Z,89.35
2023-04-06T02:44:55.613Z,88.66
2023-04-06T02:47:45.042Z,89.25
2023-04-06T02:50:34.417Z,89.37
2023-04-06T02:53:23.901Z,88.85
2023-04-06T02:56:09.966Z,89.49
2023-04-06T02:59:03.936Z,89.48
2023-04-06T03:01:51.827Z,89.84
2023-04-06T03:04:37.903Z,89.04
2023-04-06T03:07:27.528Z,88.78
2023-04-06T03:10:14.014Z,88.66
2023-04-06T03:13:00.378Z,89.07
2023-04-06T03:16:07.692Z,88.67
2023-04-06T03:18:54.373Z,88.69
2023-04-06T03:21:40.788Z,88.02
2023-04-06T03:24:27.262Z,89.09
2023-04-06T03:27:12.877Z,88.94
2023-04-06T03:29:59.799Z,88.93
2023-04-06T03:32:51.424Z,88.86
2023-04-06T03:35:39.149Z,89.32
2023-04-06T03:38:25.970Z,88.88
2023-04-06T03:41:12.036Z,89.28
2023-04-06T03:44:00.142Z,89.32
2023-04-06T03:46:45.716Z,89.37
2023-04-06T03:49:31.633Z,88.92
2023-04-06T03:52:18.175Z,89.09
2023-04-06T03:55:03.999Z,89.75
2023-04-06T03:57:49.703Z,89.63
2023-04-06T04:00:35.470Z,90.03
2023-04-06T04:03:22.661Z,90.06
2023-04-06T04:06:08.468Z,90.69
2023-04-06T04:08:54.110Z,90.52
2023-04-06T04:11:39.821Z,90.21
2023-04-06T04:14:26.478Z,90.55
2023-04-06T04:17:12.122Z,89.93
2023-04-06T04:19:57.835Z,89.80
2023-04-06T04:22:45.888Z,90.30
2023-04-06T04:25:31.871Z,90.01
2023-04-06T04:28:17.360Z,89.87
2023-04-06T04:31:05.460Z,89.75
2023-04-06T04:33:53.511Z,90.12
2023-04-06T04:36:45.699Z,90.20
2023-04-06T04:39:39.456Z,89.53
2023-04-06T04:42:26.465Z,90.50
2023-04-06T04:45:15.495Z,89.73
2023-04-06T04:48:02.088Z,89.82
2023-04-06T04:50:56.570Z,89.39
2023-04-06T04:53:46.452Z,89.87
2023-04-06T04:56:43.980Z,90.08
2023-04-06T04:59:44.060Z,90.56
2023-04-06T05:02:45.451Z,91.25
2023-04-06T05:05:39.214Z,90.70
2023-04-06T05:08:25.629Z,91.80
2023-04-06T05:11:14.409Z,91.96
2023-04-06T05:14:28.183Z,92.21
2023-04-06T05:17:21.402Z,91.37
2023-04-06T05:20:10.873Z,91.72
2023-04-06T05:23:47.304Z,91.15
2023-04-06T05:26:32.763Z,91.05
2023-04-06T05:29:42.985Z,90.64
2023-04-06T05:32:29.189Z,90.53
2023-04-06T05:35:15.914Z,90.22
2023-04-06T05:38:09.310Z,90.80
2023-04-06T05:44:32.018Z,90.11
2023-04-06T05:47:59.916Z,89.95
2023-04-06T05:51:10.218Z,90.26
2023-04-06T05:54:15.058Z,89.90
2023-04-06T05:57:19.492Z,90.18
2023-04-06T06:00:16.299Z,89.92
2023-04-06T06:03:16.356Z,89.60
2023-04-06T06:06:16.736Z,89.75
2023-04-06T06:09:23.618Z,89.72
2023-04-06T06:12:42.118Z,90.69
2023-04-06T06:15:38.814Z,90.34
2023-04-06T06:18:30.696Z,90.61
2023-04-06T06:21:22.015Z,90.57
2023-04-06T06:24:22.756Z,90.55
2023-04-06T06:27:43.797Z,90.89
2023-04-06T06:31:03.743Z,90.54
2023-04-06T06:34:24.528Z,90.75
2023-04-06T06:40:41.679Z,90.40
2023-04-06T06:43:39.087Z,90.23
2023-04-06T06:46:33.806Z,90.49
2023-04-06T06:49:20.775Z,90.85
2023-04-06T06:52:06.287Z,90.60
2023-04-06T06:54:51.803Z,91.04
2023-04-06T06:57:39.560Z,91.01
2023-04-06T07:00:27.070Z,91.02
2023-04-06T07:03:13.124Z,89.84
2023-04-06T07:05:58.660Z,89.95
2023-04-06T07:08:45.593Z,90.46
2023-04-06T07:11:31.527Z,90.08
2023-04-06T07:14:18.094Z,90.15
2023-04-06T07:17:04.465Z,90.09
2023-04-06T07:19:50.669Z,90.11
2023-04-06T07:22:36.514Z,89.94
2023-04-06T07:25:25.169Z,90.55
2023-04-06T07:28:11.292Z,90.03
2023-04-06T07:30:57.645Z,89.92
2023-04-06T07:33:44.148Z,90.25
2023-04-06T07:36:30.142Z,90.21
2023-04-06T07:39:25.491Z,90.42
2023-04-06T07:42:18.152Z,90.36
2023-04-06T07:45:05.357Z,90.40
2023-04-06T07:47:51.885Z,90.48
2023-04-06T07:50:37.651Z,90.33
2023-04-06T07:53:25.120Z,90.45
2023-04-06T07:56:10.901Z,90.39
2023-04-06T07:58:58.303Z,91.07
2023-04-06T08:01:44.307Z,90.20
2023-04-06T08:04:29.783Z,90.38
2023-04-06T08:07:15.436Z,90.44
2023-04-06T08:10:36.103Z,90.04
2023-04-06T08:13:22.056Z,90.79
2023-04-06T08:16:08.921Z,90.70
2023-04-06T08:18:54.164Z,90.77
2023-04-06T08:21:43.574Z,89.99
2023-04-06T08:24:29.616Z,90.80
2023-04-06T08:27:15.867Z,90.11
2023-04-06T08:30:02.607Z,90.25
2023-04-06T08:32:48.539Z,89.87
2023-04-06T08:35:39.980Z,89.93
2023-04-06T08:38:58.668Z,89.84
2023-04-06T08:42:08.623Z,89.88
2023-04-06T08:45:16.097Z,89.57
2023-04-06T08:48:09.466Z,90.09
2023-04-06T08:50:56.248Z,90.20
2023-04-06T08:53:42.187Z,90.28
2023-04-06T08:56:29.515Z,90.37
2023-04-06T08:59:16.105Z,90.72
2023-04-06T09:02:06.473Z,90.83
2023-04-06T09:04:54.730Z,90.46
2023-04-06T09:07:40.596Z,90.41
2023-04-06T09:10:26.887Z,90.73
2023-04-06T09:13:12.555Z,90.03
2023-04-06T09:16:06.178Z,89.98
2023-04-06T09:18:51.697Z,90.33
2023-04-06T09:21:38.043Z,90.25
2023-04-06T09:24:27.223Z,90.56
2023-04-06T09:27:13.629Z,90.12
2023-04-06T09:30:06.318Z,90.76
2023-04-06T09:32:53.806Z,90.21
2023-04-06T09:35:40.077Z,90.35
2023-04-06T09:38:26.117Z,90.44
2023-04-06T09:41:11.874Z,90.38
2023-04-06T09:44:07.991Z,90.60
2023-04-06T09:46:59.598Z,90.80
2023-04-06T09:49:51.103Z,90.48
2023-04-06T09:52:52.345Z,90.26
2023-04-06T09:55:44.266Z,90.39
2023-04-06T09:58:35.050Z,90.82
2023-04-06T10:01:21.827Z,90.49
2023-04-06T10:04:19.634Z,90.91
2023-04-06T10:07:07.801Z,90.66
2023-04-06T10:09:56.375Z,90.77
2023-04-06T10:12:43.551Z,90.99
2023-04-06T10:15:32.465Z,91.32
2023-04-06T10:18:18.743Z,90.64
2023-04-06T10:21:12.848Z,91.04
2023-04-06T10:24:03.483Z,90.67
2023-04-06T10:27:28.024Z,91.14
2023-04-06T10:30:17.064Z,89.94
2023-04-06T10:33:17.374Z,90.83
2023-04-06T10:36:23.428Z,90.37
2023-04-06T10:39:09.227Z,90.15
2023-04-06T10:41:54.984Z,90.78
2023-04-06T10:44:45.817Z,91.21
2023-04-06T10:47:41.047Z,90.98
2023-04-06T10:50:27.216Z,91.31
2023-04-06T10:53:12.609Z,91.39
2023-04-06T10:55:59.002Z,90.66
2023-04-06T10:58:53.917Z,90.09
2023-04-06T11:01:46.715Z,90.79
2023-04-06T11:04:32.655Z,90.09
2023-04-06T11:07:24.688Z,90.50
2023-04-06T11:10:16.584Z,90.52
2023-04-06T11:13:03.599Z,90.21
2023-04-06T11:15:50.202Z,90.62
2023-04-06T11:18:36.267Z,90.09
2023-04-06T11:21:41.215Z,90.57
2023-04-06T11:24:30.663Z,90.46
2023-04-06T11:27:19.412Z,90.24
2023-04-06T11:30:06.479Z,90.17
2023-04-06T11:32:52.863Z,90.41
2023-04-06T11:35:38.471Z,90.29
2023-04-06T11:38:24.046Z,90.75
2023-04-06T11:41:09.924Z,90.52
2023-04-06T11:43:57.020Z,90.88
2023-04-06T11:46:52.182Z,91.18
2023-04-06T11:49:39.958Z,90.77
2023-04-06T11:52:28.542Z,90.03
2023-04-06T11:55:17.002Z,90.42
2023-04-06T11:58:02.709Z,90.92
2023-04-06T12:00:48.342Z,90.65
2023-04-06T12:03:33.889Z,91.33
2023-04-06T12:06:19.811Z,91.38
2023-04-06T12:09:05.656Z,91.37
2023-04-06T12:11:51.281Z,91.28
2023-04-06T12:14:36.942Z,90.92
2023-04-06T12:17:22.615Z,90.93
2023-04-06T12:20:22.111Z,91.13
2023-04-06T12:23:11.377Z,90.96
2023-04-06T12:25:57.373Z,91.44
2023-04-06T12:28:42.884Z,91.43
2023-04-06T12:31:29.549Z,91.93
2023-04-06T12:34:15.129Z,91.87
2023-04-06T12:37:00.708Z,92.15
2023-04-06T12:39:47.268Z,91.97
2023-04-06T12:42:32.611Z,91.82
2023-04-06T12:45:18.945Z,92.31
2023-04-06T12:48:04.640Z,92.36
2023-04-06T12:51:01.541Z,92.07
2023-04-06T12:53:47.016Z,92.12
2023-04-06T12:56:33.738Z,92.39
2023-04-06T12:59:21.933Z,92.50
2023-04-06T13:02:07.622Z,91.70
2023-04-06T13:04:53.046Z,91.89
2023-04-06T13:07:38.828Z,91.48
2023-04-06T13:10:24.320Z,91.77
2023-04-06T13:13:10.373Z,91.99
2023-04-06T13:16:04.760Z,91.77
2023-04-06T13:18:51.317Z,92.15
2023-04-06T13:21:36.994Z,92.33
2023-04-06T13:24:22.997Z,91.95
2023-04-06T13:27:08.371Z,92.38
2023-04-06T13:29:55.846Z,92.72
2023-04-06T13:32:41.409Z,92.39
2023-04-06T13:35:27.713Z,92.76
2023-04-06T13:38:15.505Z,92.59
2023-04-06T13:41:01.196Z,92.26
2023-04-06T13:43:46.442Z,92.17
2023-04-06T13:46:31.990Z,92.15
2023-04-06T13:49:17.367Z,92.19
2023-04-06T13:52:02.819Z,93.04
2023-04-06T13:54:49.406Z,92.76
2023-04-06T13:57:34.984Z,92.80
2023-04-06T14:00:20.889Z,92.95
2023-04-06T14:03:07.899Z,92.98
2023-04-06T14:05:53.410Z,93.60
2023-04-06T14:08:39.024Z,93.03
2023-04-06T14:11:25.488Z,93.37
2023-04-06T14:14:11.215Z,93.10
2023-04-06T14:16:57.065Z,92.96
2023-04-06T14:19:42.690Z,92.88
2023-04-06T14:25:14.104Z,92.97
2023-04-06T14:27:59.591Z,92.74
2023-04-06T14:30:45.634Z,92.10
2023-04-06T14:33:31.699Z,92.43
2023-04-06T14:36:17.106Z,92.10
2023-04-06T14:39:13.876Z,92.35
2023-04-06T14:42:02.660Z,92.15
2023-04-06T14:45:16.884Z,91.90
2023-04-06T14:48:13.198Z,91.59
2023-04-06T14:50:59.866Z,92.02
2023-04-06T14:53:54.641Z,91.57
2023-04-06T14:56:40.516Z,91.54
2023-04-06T14:59:26.159Z,92.33
2023-04-06T15:02:16.787Z,93.14
2023-04-06T15:05:02.877Z,92.35
2023-04-06T15:07:48.635Z,92.31
2023-04-06T15:10:34.929Z,92.60
2023-04-06T15:13:21.390Z,92.90
2023-04-06T15:16:07.804Z,93.19
2023-04-06T15:18:53.871Z,93.30
2023-04-06T15:21:39.300Z,93.40
2023-04-06T15:24:24.990Z,93.36
2023-04-06T15:27:10.279Z,93.59
2023-04-06T15:29:55.717Z,93.19
2023-04-06T15:32:41.237Z,93.26
2023-04-06T15:35:27.452Z,93.58
2023-04-06T15:38:12.820Z,93.47
2023-04-06T15:40:58.452Z,93.34
2023-04-06T15:43:44.406Z,93.46
2023-04-06T15:46:30.776Z,93.22
2023-04-06T15:49:16.490Z,93.74
2023-04-06T15:52:02.532Z,93.94
2023-04-06T15:54:48.082Z,93.71
2023-04-06T15:57:34.088Z,93.94
2023-04-06T16:00:20.109Z,93.93
2023-04-06T16:03:06.692Z,94.16
2023-04-06T16:06:08.231Z,94.33
2023-04-06T16:08:55.049Z,94.32
2023-04-06T16:11:42.034Z,94.76
2023-04-06T16:14:27.879Z,94.17
2023-04-06T16:17:23.631Z,94.75
2023-04-06T16:20:11.962Z,94.90
2023-04-06T16:22:58.250Z,94.88
2023-04-06T16:25:44.931Z,94.48
2023-04-06T16:28:31.526Z,94.66
2023-04-06T16:31:22.339Z,94.71
2023-04-06T16:34:08.686Z,94.89
2023-04-06T16:36:56.890Z,94.70
2023-04-06T16:39:42.795Z,94.90
2023-04-06T16:42:28.604Z,95.30
2023-04-06T16:45:15.958Z,94.59
2023-04-06T16:48:06.789Z,95.03
2023-04-06T16:50:52.931Z,95.19
2023-04-06T16:53:39.332Z,95.32
2023-04-06T16:56:25.752Z,95.30
2023-04-06T16:59:11.697Z,95.02
2023-04-06T17:01:57.752Z,95.31
2023-04-06T17:04:43.618Z,94.76
2023-04-06T17:07:32.973Z,95.03
2023-04-06T17:10:24.264Z,95.17
2023-04-06T17:13:19.089Z,95.15
2023-04-06T17:16:07.968Z,94.59
2023-04-06T17:18:53.780Z,94.54
2023-04-06T17:21:43.252Z,94.94
2023-04-06T17:24:29.207Z,95.67
2023-04-06T17:27:15.983Z,95.22
2023-04-06T17:30:06.821Z,95.33
2023-04-06T17:32:52.653Z,95.21
2023-04-06T17:35:38.670Z,95.12
2023-04-06T17:38:25.329Z,95.46
2023-04-06T17:41:14.653Z,94.95
2023-04-06T17:44:00.969Z,94.20
2023-04-06T17:46:46.968Z,94.34
2023-04-06T17:49:32.429Z,93.85
2023-04-06T17:52:18.144Z,93.78
2023-04-06T17:55:04.008Z,93.81
2023-04-06T17:57:49.900Z,93.77
2023-04-06T18:00:35.548Z,93.88
2023-04-06T18:03:20.974Z,93.62
2023-04-06T18:06:14.561Z,93.85
2023-04-06T18:09:01.012Z,93.78
2023-04-06T18:11:46.562Z,93.76
2023-04-06T18:14:32.229Z,94.05
2023-04-06T18:17:17.879Z,93.71
2023-04-06T18:20:03.911Z,93.56
2023-04-06T18:25:40.533Z,93.32
2023-04-06T18:28:25.779Z,92.90
2023-04-06T18:31:11.523Z,93.29
2023-04-06T18:33:57.594Z,93.26
2023-04-06T18:36:44.150Z,93.71
2023-04-06T18:39:29.435Z,93.65
2023-04-06T18:42:15.049Z,93.82
2023-04-06T18:45:00.796Z,94.10
2023-04-06T18:47:47.639Z,94.16
2023-04-06T18:50:33.259Z,93.90
2023-04-06T18:53:19.177Z,94.21
2023-04-06T18:56:15.714Z,94.68
2023-04-06T18:59:05.403Z,95.11
2023-04-06T19:01:54.098Z,95.14
2023-04-06T19:04:40.391Z,94.91
2023-04-06T19:07:27.101Z,95.44
2023-04-06T19:10:12.715Z,95.21
2023-04-06T19:13:22.822Z,95.58
2023-04-06T19:16:19.697Z,96.13
2023-04-06T19:19:06.280Z,96.49
2023-04-06T19:22:29.397Z,96.53
2023-04-06T19:25:49.796Z,96.45
2023-04-06T19:28:36.941Z,96.36
2023-04-06T19:31:23.037Z,96.63
2023-04-06T19:34:08.724Z,96.09
2023-04-06T19:37:05.446Z,96.54
2023-04-06T19:40:08.107Z,95.87
2023-04-06T19:43:38.421Z,96.09
2023-04-06T19:46:34.066Z,95.58
2023-04-06T19:49:19.551Z,94.82
2023-04-06T19:52:07.687Z,94.44
2023-04-06T19:54:53.171Z,95.10
2023-04-06T19:57:39.306Z,95.31
2023-04-06T20:00:24.946Z,95.08
2023-04-06T20:03:10.845Z,94.70
2023-04-06T20:09:28.980Z,95.18
2023-04-06T20:12:14.607Z,95.07
2023-04-06T20:15:01.702Z,95.03
2023-04-06T20:17:47.349Z,95.31
2023-04-06T20:20:33.106Z,95.04
2023-04-06T20:23:21.450Z,95.02
2023-04-06T20:26:11.648Z,95.76
2023-04-06T20:28:57.353Z,95.01
2023-04-06T20:31:43.319Z,95.33
2023-04-06T20:34:30.373Z,95.23
2023-04-06T20:37:16.629Z,95.23
2023-04-06T20:40:01.976Z,95.34
2023-04-06T20:42:48.804Z,94.89
2023-04-06T20:45:38.607Z,95.61
2023-04-06T20:48:25.665Z,95.51
2023-04-06T20:51:19.751Z,95.36
2023-04-06T20:54:05.330Z,95.32
2023-04-06T20:56:50.907Z,95.39
2023-04-06T20:59:37.816Z,95.26
2023-04-06T21:02:23.269Z,95.21
2023-04-06T21:05:09.279Z,95.20
2023-04-06T21:07:55.515Z,95.56
2023-04-06T21:10:41.065Z,95.48
2023-04-06T21:13:27.192Z,95.52
2023-04-06T21:16:13.026Z,95.42
2023-04-06T21:19:01.608Z,95.58
2023-04-06T21:21:48.059Z,95.47
2023-04-06T21:24:33.679Z,95.43
2023-04-06T21:27:19.108Z,95.70
2023-04-06T21:30:04.689Z,95.64
2023-04-06T21:32:50.459Z,96.11
2023-04-06T21:35:40.740Z,96.05
2023-04-06T21:38:26.229Z,96.33
2023-04-06T21:41:11.703Z,95.97
2023-04-06T21:43:57.009Z,96.09
2023-04-06T21:46:42.615Z,95.71
2023-04-06T21:49:27.991Z,96.02
2023-04-06T21:52:13.490Z,95.81
2023-04-06T21:54:58.792Z,96.10
2023-04-06T21:57:44.645Z,95.36
2023-04-06T22:00:30.046Z,95.07
2023-04-06T22:03:15.792Z,94.71
2023-04-06T22:06:04.360Z,94.01
2023-04-06T22:08:50.086Z,93.69
2023-04-06T22:11:35.866Z,93.44
2023-04-06T22:14:21.747Z,93.04
2023-04-06T22:17:07.439Z,93.00
2023-04-06T22:19:52.867Z,92.86
2023-04-06T22:22:39.187Z,92.30
2023-04-06T22:25:24.871Z,92.58
2023-04-06T22:28:10.179Z,92.51
2023-04-06T22:30:55.693Z,92.29
2023-04-06T22:33:41.095Z,91.59
2023-04-06T22:36:27.122Z,91.22
2023-04-06T22:39:12.525Z,90.87
2023-04-06T22:41:58.023Z,90.74
2023-04-06T22:44:43.370Z,90.34
2023-04-06T22:47:29.593Z,90.29
2023-04-06T22:50:16.336Z,91.30
2023-04-06T22:53:02.397Z,91.35
2023-04-06T22:55:47.649Z,91.60
2023-04-06T22:58:33.092Z,91.47
2023-04-06T23:01:18.607Z,91.71
2023-04-06T23:04:04.411Z,92.14
2023-04-06T23:06:49.630Z,91.67
2023-04-06T23:09:35.053Z,91.60
2023-04-06T23:12:23.699Z,91.75
2023-04-06T23:15:09.988Z,91.61
2023-04-06T23:17:55.730Z,91.88
2023-04-06T23:20:41.343Z,92.01
2023-04-06T23:23:26.608Z,92.25
2023-04-06T23:26:12.009Z,92.09
2023-04-06T23:28:57.453Z,91.91
2023-04-06T23:31:42.718Z,92.24
2023-04-06T23:34:28.247Z,92.55
2023-04-06T23:37:13.814Z,91.92
2023-04-06T23:40:00.225Z,91.46
2023-04-06T23:42:46.250Z,91.94
2023-04-06T23:45:33.025Z,91.95
2023-04-06T23:48:18.402Z,91.52
2023-04-06T23:51:03.982Z,92.12
2023-04-06T23:53:49.367Z,92.37
2023-04-06T23:56:34.934Z,92.27
2023-04-06T23:59:20.343Z,92.69
